Time,TemperatureF,DewpointF,PressureIn,WindDirection,WindDirectionDegrees,WindSpeedMPH,WindSpeedGustMPH,Humidity,HourlyPrecipIn,Conditions,Clouds,dailyrainin,SoftwareType,DateUTC
2013-05-11 00:00:00,55.6,44.4,29.94,SSW,202,2.2,-999.0,66,-99.99,,,0.00,Acu-Link.com,2013-05-11 05:00:00,
2013-05-11 00:15:00,55.4,44.6,29.93,SW,225,2.2,-999.0,67,-99.99,,,0.00,Acu-Link.com,2013-05-11 05:15:00,
2013-05-11 00:31:00,54.9,44.5,29.94,South,180,2.7,-999.0,68,-99.99,,,0.00,Acu-Link.com,2013-05-11 05:31:00,
2013-05-11 00:46:00,54.3,44.3,29.94,SSW,202,2.2,-999.0,69,-99.99,,,0.00,Acu-Link.com,2013-05-11 05:46:00,
2013-05-11 01:01:00,54.1,44.5,29.94,SW,225,2.7,-999.0,70,-99.99,,,0.00,Acu-Link.com,2013-05-11 06:01:00,
2013-05-11 01:16:00,53.8,44.6,29.93,SSW,202,2.7,-999.0,71,-99.99,,,0.00,Acu-Link.com,2013-05-11 06:16:00,
2013-05-11 01:31:00,54.0,44.8,29.93,SSW,202,2.7,-999.0,71,-99.99,,,0.00,Acu-Link.com,2013-05-11 06:31:00,
2013-05-11 01:47:00,53.8,45.0,29.93,SW,225,3.2,-999.0,72,-99.99,,,0.00,Acu-Link.com,2013-05-11 06:47:00,
2013-05-11 02:02:00,53.8,45.0,29.92,SSW,202,3.7,-999.0,72,-99.99,,,0.00,Acu-Link.com,2013-05-11 07:02:00,
2013-05-11 02:17:00,53.2,45.1,29.92,SW,225,3.2,-999.0,74,-99.99,,,0.00,Acu-Link.com,2013-05-11 07:17:00,
2013-05-11 02:32:00,53.4,45.0,29.92,SSW,202,3.7,-999.0,73,-99.99,,,0.00,Acu-Link.com,2013-05-11 07:32:00,
2013-05-11 02:48:00,53.4,45.3,29.92,SSW,202,2.7,-999.0,74,-99.99,,,0.00,Acu-Link.com,2013-05-11 07:48:00,
2013-05-11 03:03:00,53.2,45.5,29.93,SSW,202,2.7,-999.0,75,-99.99,,,0.00,Acu-Link.com,2013-05-11 08:03:00,
2013-05-11 03:18:00,53.2,45.5,29.93,SSW,202,3.2,-999.0,75,-99.99,,,0.00,Acu-Link.com,2013-05-11 08:18:00,
2013-05-11 03:34:00,52.7,45.7,29.93,WSW,247,4.2,-999.0,77,-99.99,,,0.00,Acu-Link.com,2013-05-11 08:34:00,
2013-05-11 03:49:00,52.5,45.5,29.94,SW,225,3.7,-999.0,77,-99.99,,,0.00,Acu-Link.com,2013-05-11 08:49:00,
2013-05-11 04:04:00,52.2,45.9,29.94,SSW,202,0.0,-999.0,79,-99.99,,,0.00,Acu-Link.com,2013-05-11 09:04:00,
2013-05-11 04:19:00,52.2,46.2,29.97,NW,315,8.3,-999.0,80,-99.99,,,0.00,Acu-Link.com,2013-05-11 09:19:00,
2013-05-11 04:34:00,54.0,45.5,29.97,NW,315,5.8,-999.0,73,-99.99,,,0.00,Acu-Link.com,2013-05-11 09:34:00,
2013-05-11 04:49:00,53.8,45.7,29.98,NNW,337,7.8,-999.0,74,-99.99,,,0.00,Acu-Link.com,2013-05-11 09:49:00,
2013-05-11 05:05:00,54.3,45.5,29.99,NNW,337,12.5,-999.0,72,-99.99,,,0.00,Acu-Link.com,2013-05-11 10:05:00,
2013-05-11 05:20:00,55.0,42.6,30.00,NW,315,19.7,-999.0,63,-99.99,,,0.00,Acu-Link.com,2013-05-11 10:20:00,
2013-05-11 05:35:00,54.5,39.1,30.01,North,0,11.9,-999.0,56,-99.99,,,0.00,Acu-Link.com,2013-05-11 10:35:00,
2013-05-11 05:50:00,54.0,36.8,30.02,North,0,15.5,-999.0,52,-99.99,,,0.00,Acu-Link.com,2013-05-11 10:50:00,
2013-05-11 06:05:00,53.4,35.2,30.03,North,0,16.1,-999.0,50,-99.99,,,0.00,Acu-Link.com,2013-05-11 11:05:00,
2013-05-11 06:21:00,52.9,35.3,30.04,NNE,22,13.0,-999.0,51,-99.99,,,0.00,Acu-Link.com,2013-05-11 11:21:00,
2013-05-11 06:36:00,52.5,34.9,30.06,NW,315,10.4,-999.0,51,-99.99,,,0.00,Acu-Link.com,2013-05-11 11:36:00,
2013-05-11 06:51:00,52.7,35.6,30.05,NNW,337,12.5,-999.0,52,-99.99,,,0.00,Acu-Link.com,2013-05-11 11:51:00,
2013-05-11 07:07:00,53.1,34.5,30.06,NW,315,13.0,-999.0,49,-99.99,,,0.00,Acu-Link.com,2013-05-11 12:07:00,
2013-05-11 07:22:00,53.4,34.2,30.05,WNW,292,8.3,-999.0,48,-99.99,,,0.00,Acu-Link.com,2013-05-11 12:22:00,
2013-05-11 07:37:00,54.0,33.1,30.06,NNW,337,14.0,-999.0,45,-99.99,,,0.00,Acu-Link.com,2013-05-11 12:37:00,
2013-05-11 07:52:00,54.7,33.8,30.05,NW,315,13.5,-999.0,45,-99.99,,,0.00,Acu-Link.com,2013-05-11 12:52:00,
2013-05-11 08:08:00,54.9,31.6,30.05,North,0,11.4,-999.0,41,-99.99,,,0.00,Acu-Link.com,2013-05-11 13:08:00,
2013-05-11 08:23:00,55.2,31.9,30.04,NW,315,10.9,-999.0,41,-99.99,,,0.00,Acu-Link.com,2013-05-11 13:23:00,
2013-05-11 08:38:00,55.4,30.9,30.04,NNW,337,17.6,-999.0,39,-99.99,,,0.00,Acu-Link.com,2013-05-11 13:38:00,
2013-05-11 08:53:00,56.7,32.7,30.02,NNW,337,10.4,-999.0,40,-99.99,,,0.00,Acu-Link.com,2013-05-11 13:53:00,
2013-05-11 09:09:00,56.5,31.8,30.01,NNW,337,17.1,-999.0,39,-99.99,,,0.00,Acu-Link.com,2013-05-11 14:09:00,
2013-05-11 09:24:00,56.8,31.5,30.01,NW,315,17.6,-999.0,38,-99.99,,,0.00,Acu-Link.com,2013-05-11 14:24:00,
2013-05-11 09:39:00,57.9,31.8,30.00,NW,315,19.7,-999.0,37,-99.99,,,0.00,Acu-Link.com,2013-05-11 14:39:00,
2013-05-11 09:55:00,57.4,30.7,30.00,NW,315,23.8,-999.0,36,-99.99,,,0.00,Acu-Link.com,2013-05-11 14:55:00,
2013-05-11 10:10:00,59.0,31.4,30.00,NNW,337,12.5,-999.0,35,-99.99,,,0.00,Acu-Link.com,2013-05-11 15:10:00,
2013-05-11 10:25:00,58.5,29.5,30.03,NW,315,18.1,-999.0,33,-99.99,,,0.00,Acu-Link.com,2013-05-11 15:25:00,
2013-05-11 10:40:00,58.5,27.2,30.07,NNE,22,26.4,-999.0,30,-99.99,,,0.00,Acu-Link.com,2013-05-11 15:40:00,
2013-05-11 10:56:00,59.2,28.6,30.09,NW,315,17.1,-999.0,31,-99.99,,,0.00,Acu-Link.com,2013-05-11 15:56:00,
2013-05-11 11:11:00,60.3,29.5,30.10,NW,315,12.5,-999.0,31,-99.99,,,0.00,Acu-Link.com,2013-05-11 16:11:00,
2013-05-11 11:26:00,61.0,28.5,30.11,NW,315,15.5,-999.0,29,-99.99,,,0.00,Acu-Link.com,2013-05-11 16:26:00,
2013-05-11 11:41:00,61.7,30.8,30.11,NNW,337,15.0,-999.0,31,-99.99,,,0.00,Acu-Link.com,2013-05-11 16:41:00,
2013-05-11 11:56:00,61.0,28.5,30.12,NNW,337,18.1,-999.0,29,-99.99,,,0.00,Acu-Link.com,2013-05-11 16:56:00,
2013-05-11 12:12:00,61.5,27.2,30.12,NW,315,16.6,-999.0,27,-99.99,,,0.00,Acu-Link.com,2013-05-11 17:12:00,
2013-05-11 12:27:00,62.2,27.8,30.12,WNW,292,15.0,-999.0,27,-99.99,,,0.00,Acu-Link.com,2013-05-11 17:27:00,
2013-05-11 12:42:00,63.5,28.9,30.11,NNW,337,17.1,-999.0,27,-99.99,,,0.00,Acu-Link.com,2013-05-11 17:42:00,
2013-05-11 12:58:00,64.6,31.6,30.11,NW,315,16.1,-999.0,29,-99.99,,,0.00,Acu-Link.com,2013-05-11 17:58:00,
2013-05-11 13:13:00,63.5,29.8,30.11,NNW,337,14.0,-999.0,28,-99.99,,,0.00,Acu-Link.com,2013-05-11 18:13:00,
2013-05-11 13:28:00,63.5,28.0,30.11,NW,315,23.8,-999.0,26,-99.99,,,0.00,Acu-Link.com,2013-05-11 18:28:00,
2013-05-11 13:44:00,63.9,31.0,30.11,NNW,337,11.4,-999.0,29,-99.99,,,0.00,Acu-Link.com,2013-05-11 18:44:00,
2013-05-11 13:59:00,63.7,29.1,30.11,NNW,337,15.0,-999.0,27,-99.99,,,0.00,Acu-Link.com,2013-05-11 18:59:00,
2013-05-11 14:14:00,64.4,30.6,30.11,North,0,8.3,-999.0,28,-99.99,,,0.00,Acu-Link.com,2013-05-11 19:14:00,
2013-05-11 14:29:00,62.6,29.0,30.11,WNW,292,21.2,-999.0,28,-99.99,,,0.00,Acu-Link.com,2013-05-11 19:29:00,
2013-05-11 14:44:00,63.9,25.4,30.11,NNW,337,16.6,-999.0,23,-99.99,,,0.00,Acu-Link.com,2013-05-11 19:44:00,
2013-05-11 15:00:00,63.9,27.4,30.12,NW,315,13.5,-999.0,25,-99.99,,,0.00,Acu-Link.com,2013-05-11 20:00:00,
2013-05-11 15:15:00,63.5,28.0,30.11,NNW,337,13.5,-999.0,26,-99.99,,,0.00,Acu-Link.com,2013-05-11 20:15:00,
2013-05-11 15:30:00,62.4,25.1,30.11,NNW,337,11.9,-999.0,24,-99.99,,,0.00,Acu-Link.com,2013-05-11 20:30:00,
2013-05-11 15:45:00,63.9,28.3,30.11,WNW,292,15.0,-999.0,26,-99.99,,,0.00,Acu-Link.com,2013-05-11 20:45:00,
2013-05-11 16:00:00,63.7,28.2,30.10,West,270,9.4,-999.0,26,-99.99,,,0.00,Acu-Link.com,2013-05-11 21:00:00,
2013-05-11 16:16:00,63.3,27.8,30.11,West,270,8.3,-999.0,26,-99.99,,,0.00,Acu-Link.com,2013-05-11 21:16:00,
2013-05-11 16:31:00,63.3,24.9,30.10,WNW,292,12.5,-999.0,23,-99.99,,,0.00,Acu-Link.com,2013-05-11 21:31:00,
2013-05-11 16:46:00,63.1,22.5,30.10,North,0,14.0,-999.0,21,-99.99,,,0.00,Acu-Link.com,2013-05-11 21:46:00,
2013-05-11 17:01:00,62.8,23.4,30.10,West,270,13.0,-999.0,22,-99.99,,,0.00,Acu-Link.com,2013-05-11 22:01:00,
2013-05-11 17:17:00,61.9,22.6,30.10,NW,315,9.9,-999.0,22,-99.99,,,0.00,Acu-Link.com,2013-05-11 22:17:00,
2013-05-11 17:32:00,61.7,23.5,30.11,NW,315,17.1,-999.0,23,-99.99,,,0.00,Acu-Link.com,2013-05-11 22:32:00,
2013-05-11 17:47:00,60.6,24.6,30.11,NNW,337,14.0,-999.0,25,-99.99,,,0.00,Acu-Link.com,2013-05-11 22:47:00,
2013-05-11 18:02:00,60.3,22.4,30.11,NNW,337,12.5,-999.0,23,-99.99,,,0.00,Acu-Link.com,2013-05-11 23:02:00,
2013-05-11 18:17:00,59.7,21.9,30.11,NNW,337,10.4,-999.0,23,-99.99,,,0.00,Acu-Link.com,2013-05-11 23:17:00,
2013-05-11 18:33:00,59.9,22.0,30.11,NNW,337,13.5,-999.0,23,-99.99,,,0.00,Acu-Link.com,2013-05-11 23:33:00,
2013-05-11 18:48:00,59.9,23.0,30.11,NNW,337,10.9,-999.0,24,-99.99,,,0.00,Acu-Link.com,2013-05-11 23:48:00,
2013-05-11 19:03:00,59.2,22.4,30.11,NNW,337,7.8,-999.0,24,-99.99,,,0.00,Acu-Link.com,2013-05-12 00:03:00,
2013-05-11 19:18:00,57.9,23.2,30.11,NNW,337,8.9,-999.0,26,-99.99,,,0.00,Acu-Link.com,2013-05-12 00:18:00,
2013-05-11 19:33:00,56.8,22.3,30.11,WNW,292,5.8,-999.0,26,-99.99,,,0.00,Acu-Link.com,2013-05-12 00:33:00,
2013-05-11 19:49:00,55.8,23.2,30.11,NW,315,7.3,-999.0,28,-99.99,,,0.00,Acu-Link.com,2013-05-12 00:49:00,
2013-05-11 20:04:00,55.0,24.1,30.12,WNW,292,7.8,-999.0,30,-99.99,,,0.00,Acu-Link.com,2013-05-12 01:04:00,
2013-05-11 20:19:00,54.0,24.8,30.13,NNW,337,7.3,-999.0,32,-99.99,,,0.00,Acu-Link.com,2013-05-12 01:19:00,
2013-05-11 20:34:00,53.4,23.5,30.12,WNW,292,3.7,-999.0,31,-99.99,,,0.00,Acu-Link.com,2013-05-12 01:34:00,
2013-05-11 20:50:00,52.3,24.1,30.13,WNW,292,4.7,-999.0,33,-99.99,,,0.00,Acu-Link.com,2013-05-12 01:50:00,
2013-05-11 21:05:00,51.4,24.0,30.13,West,270,4.2,-999.0,34,-99.99,,,0.00,Acu-Link.com,2013-05-12 02:05:00,
2013-05-11 21:20:00,50.7,24.1,30.14,West,270,4.2,-999.0,35,-99.99,,,0.00,Acu-Link.com,2013-05-12 02:20:00,
2013-05-11 21:35:00,50.4,24.5,30.14,West,270,3.7,-999.0,36,-99.99,,,0.00,Acu-Link.com,2013-05-12 02:35:00,
2013-05-11 21:50:00,49.6,24.4,30.14,West,270,4.2,-999.0,37,-99.99,,,0.00,Acu-Link.com,2013-05-12 02:50:00,
2013-05-11 22:06:00,49.5,24.3,30.15,NNW,337,4.2,-999.0,37,-99.99,,,0.00,Acu-Link.com,2013-05-12 03:06:00,
2013-05-11 22:21:00,49.1,24.0,30.15,NW,315,3.2,-999.0,37,-99.99,,,0.00,Acu-Link.com,2013-05-12 03:21:00,
2013-05-11 22:36:00,48.7,24.2,30.15,West,270,3.7,-999.0,38,-99.99,,,0.00,Acu-Link.com,2013-05-12 03:36:00,
2013-05-11 22:51:00,48.0,24.2,30.14,West,270,3.7,-999.0,39,-99.99,,,0.00,Acu-Link.com,2013-05-12 03:51:00,
2013-05-11 23:06:00,47.7,24.0,30.14,NW,315,3.2,-999.0,39,-99.99,,,0.00,Acu-Link.com,2013-05-12 04:06:00,
2013-05-11 23:22:00,46.9,24.4,30.15,West,270,3.7,-999.0,41,-99.99,,,0.00,Acu-Link.com,2013-05-12 04:22:00,
2013-05-11 23:37:00,46.6,24.2,30.15,NW,315,3.2,-999.0,41,-99.99,,,0.00,Acu-Link.com,2013-05-12 04:37:00,
2013-05-11 23:52:00,45.9,24.1,30.15,West,270,2.2,-999.0,42,-99.99,,,0.00,Acu-Link.com,2013-05-12 04:52:00,